createdAt,value
2023-04-03T00:02:20.686Z,5.49
2023-04-03T00:05:20.608Z,5.49
2023-04-03T00:08:20.663Z,5.40
2023-04-03T00:11:20.636Z,5.47
2023-04-03T00:14:20.615Z,5.45
2023-04-03T00:17:20.605Z,5.44
2023-04-03T00:20:20.644Z,5.45
2023-04-03T00:23:20.647Z,5.44
2023-04-03T00:26:20.653Z,5.38
2023-04-03T00:29:20.607Z,5.42
2023-04-03T00:32:20.626Z,5.44
2023-04-03T00:35:23.655Z,5.45
2023-04-03T00:38:23.630Z,5.41
2023-04-03T00:41:23.625Z,5.43
2023-04-03T00:44:33.612Z,5.37
2023-04-03T00:47:33.638Z,5.47
2023-04-03T00:50:33.639Z,5.47
2023-04-03T00:53:37.623Z,5.46
2023-04-03T00:56:39.585Z,5.32
2023-04-03T00:59:42.646Z,5.45
2023-04-03T01:02:42.616Z,5.35
2023-04-03T01:05:42.650Z,5.40
2023-04-03T01:08:42.613Z,5.28
2023-04-03T01:11:42.656Z,5.35
2023-04-03T01:14:44.428Z,5.33
2023-04-03T01:17:48.617Z,5.30
2023-04-03T01:20:48.621Z,5.31
2023-04-03T01:23:55.637Z,5.27
2023-04-03T01:26:55.641Z,5.24
2023-04-03T01:29:56.603Z,5.23
2023-04-03T01:32:56.669Z,5.19
2023-04-03T01:35:56.650Z,5.18
2023-04-03T01:38:56.650Z,5.15
2023-04-03T01:41:56.667Z,5.14
2023-04-03T01:44:56.599Z,5.13
2023-04-03T01:47:56.652Z,4.96
2023-04-03T01:50:56.612Z,5.07
2023-04-03T01:53:56.624Z,5.06
2023-04-03T01:56:56.616Z,5.07
2023-04-03T01:59:56.642Z,4.99
2023-04-03T02:03:05.634Z,4.95
2023-04-03T02:06:05.604Z,5.01
2023-04-03T02:09:05.647Z,5.00
2023-04-03T02:12:05.615Z,4.88
2023-04-03T02:15:05.632Z,5.03
2023-04-03T02:18:07.695Z,5.00
2023-04-03T02:21:07.589Z,5.00
2023-04-03T02:24:07.631Z,4.98
2023-04-03T02:27:07.634Z,4.85
2023-04-03T02:30:07.630Z,4.89
2023-04-03T02:33:07.679Z,4.82
2023-04-03T02:36:08.664Z,4.72
2023-04-03T02:39:08.598Z,4.60
2023-04-03T02:42:08.623Z,4.41
2023-04-03T02:45:08.621Z,4.47
2023-04-03T02:48:08.642Z,4.38
2023-04-03T02:51:08.594Z,4.33
2023-04-03T02:54:08.625Z,4.27
2023-04-03T02:57:09.679Z,4.27
2023-04-03T03:00:09.633Z,4.03
2023-04-03T03:03:09.643Z,4.15
2023-04-03T03:06:13.651Z,4.12
2023-04-03T03:08:52.768Z,4.04
2023-04-03T03:11:39.602Z,4.07
2023-04-03T03:14:18.719Z,4.02
2023-04-03T03:17:05.648Z,3.87
2023-04-03T03:19:51.603Z,3.87
2023-04-03T03:22:51.613Z,3.81
2023-04-03T03:25:55.630Z,3.76
2023-04-03T03:28:55.606Z,3.71
2023-04-03T03:31:55.647Z,3.73
2023-04-03T03:34:55.621Z,3.68
2023-04-03T03:37:55.581Z,3.59
2023-04-03T03:40:55.629Z,3.67
2023-04-03T03:43:55.593Z,3.48
2023-04-03T03:46:55.672Z,3.58
2023-04-03T03:49:55.634Z,3.59
2023-04-03T03:52:55.616Z,3.65
2023-04-03T03:55:55.598Z,3.65
2023-04-03T03:58:56.635Z,3.52
2023-04-03T04:01:57.656Z,3.64
2023-04-03T04:04:57.626Z,3.83
2023-04-03T04:07:57.652Z,3.87
2023-04-03T04:10:57.601Z,3.95
2023-04-03T04:13:57.626Z,3.95
2023-04-03T04:16:57.711Z,3.98
2023-04-03T04:19:57.594Z,3.98
2023-04-03T04:22:57.617Z,3.85
2023-04-03T04:25:59.578Z,3.92
2023-04-03T04:28:53.605Z,3.91
2023-04-03T04:31:39.613Z,3.90
2023-04-03T04:34:39.627Z,3.89
2023-04-03T04:37:39.594Z,3.89
2023-04-03T04:40:39.647Z,3.84
2023-04-03T04:43:39.635Z,3.83
2023-04-03T04:46:39.668Z,3.82
2023-04-03T04:49:39.600Z,3.77
2023-04-03T04:52:39.618Z,3.77
2023-04-03T04:55:39.617Z,3.78
2023-04-03T04:58:39.590Z,3.76
2023-04-03T05:01:39.709Z,3.77
2023-04-03T05:04:41.603Z,3.75
2023-04-03T05:07:43.649Z,3.80
2023-04-03T05:10:43.590Z,3.85
2023-04-03T05:13:43.631Z,3.90
2023-04-03T05:16:43.633Z,3.96
2023-04-03T05:19:43.644Z,4.02
2023-04-03T05:22:44.619Z,4.04
2023-04-03T05:25:44.611Z,4.02
2023-04-03T05:28:44.601Z,4.17
2023-04-03T05:31:45.666Z,4.09
2023-04-03T05:34:45.582Z,4.41
2023-04-03T05:37:45.606Z,4.31
2023-04-03T05:40:51.625Z,4.38
2023-04-03T05:43:53.124Z,4.45
2023-04-03T05:46:52.628Z,4.70
2023-04-03T05:49:53.692Z,4.80
2023-04-03T05:52:58.619Z,4.72
2023-04-03T05:55:59.616Z,4.87
2023-04-03T05:59:01.586Z,4.84
2023-04-03T06:02:01.850Z,5.02
2023-04-03T06:05:05.715Z,5.01
2023-04-03T06:08:19.678Z,5.13
2023-04-03T06:11:40.643Z,5.28
2023-04-03T06:15:16.328Z,5.30
2023-04-03T06:18:16.729Z,5.37
2023-04-03T06:21:24.137Z,5.49
2023-04-03T06:24:32.661Z,5.57
2023-04-03T06:27:32.619Z,5.46
2023-04-03T06:30:34.710Z,5.40
2023-04-03T06:33:34.698Z,5.81
2023-04-03T06:36:34.591Z,5.77
2023-04-03T06:39:36.839Z,5.78
2023-04-03T06:42:43.815Z,5.99
2023-04-03T06:46:24.709Z,5.98
2023-04-03T06:49:33.618Z,6.48
2023-04-03T06:52:33.689Z,6.54
2023-04-03T06:55:40.172Z,6.60
2023-04-03T06:58:40.587Z,6.46
2023-04-03T07:01:48.716Z,6.64
2023-04-03T07:04:54.639Z,6.40
2023-04-03T07:08:00.520Z,6.80
2023-04-03T07:11:07.641Z,6.63
2023-04-03T07:14:10.644Z,6.42
2023-04-03T07:17:15.663Z,6.91
2023-04-03T07:20:15.702Z,7.73
2023-04-03T07:23:25.606Z,8.75
2023-04-03T07:26:25.626Z,8.78
2023-04-03T07:29:28.601Z,9.49
2023-04-03T07:32:28.731Z,9.63
2023-04-03T07:35:28.586Z,10.14
2023-04-03T07:45:42.686Z,11.17
2023-04-03T07:48:43.754Z,12.17
2023-04-03T07:51:44.642Z,11.91
2023-04-03T07:58:20.819Z,11.80
2023-04-03T08:01:26.611Z,12.58
2023-04-03T08:04:26.632Z,12.49
2023-04-03T08:07:26.639Z,13.60
2023-04-03T08:10:26.635Z,12.51
2023-04-03T08:13:35.620Z,12.81
2023-04-03T08:16:40.716Z,12.96
2023-04-03T08:20:02.925Z,13.54
2023-04-03T08:23:10.627Z,11.99
2023-04-03T08:26:34.899Z,13.61
2023-04-03T08:29:36.663Z,13.36
2023-04-03T08:32:36.665Z,12.75
2023-04-03T08:35:38.221Z,12.55
2023-04-03T08:38:37.645Z,13.35
2023-04-03T08:41:44.652Z,13.78
2023-04-03T08:45:07.639Z,14.20
2023-04-03T08:48:15.635Z,14.22
2023-04-03T08:51:28.626Z,13.56
2023-04-03T08:54:48.623Z,14.84
2023-04-03T08:57:50.730Z,14.53
2023-04-03T09:01:12.654Z,13.49
2023-04-03T09:04:13.929Z,15.41
2023-04-03T09:07:21.615Z,15.79
2023-04-03T09:10:29.447Z,15.43
2023-04-03T09:13:32.747Z,15.55
2023-04-03T09:17:11.637Z,15.35
2023-04-03T09:20:18.103Z,15.16
2023-04-03T09:23:48.597Z,15.33
2023-04-03T09:27:01.664Z,15.72
2023-04-03T09:30:04.613Z,16.64
2023-04-03T09:33:09.718Z,15.34
2023-04-03T09:36:17.025Z,16.66
2023-04-03T09:39:32.646Z,14.90
2023-04-03T09:42:37.611Z,15.65
2023-04-03T09:46:06.631Z,16.24
2023-04-03T09:49:27.666Z,16.73
2023-04-03T09:52:40.512Z,16.46
2023-04-03T09:55:44.619Z,16.23
2023-04-03T09:58:53.692Z,17.00
2023-04-03T10:02:18.730Z,14.75
2023-04-03T10:05:47.718Z,14.09
2023-04-03T10:08:49.651Z,15.03
2023-04-03T10:12:03.360Z,15.42
2023-04-03T10:15:18.930Z,16.05
2023-04-03T10:18:30.710Z,15.62
2023-04-03T10:21:43.645Z,16.49
2023-04-03T10:25:11.651Z,15.03
2023-04-03T10:28:15.681Z,15.89
